Time;durP1;ratioP1;P1;durP2;ratioP2;P2;SDS_P1;SDS_P2;PMS_P1;PMS_P2;Temp;Humidity;BMP_temperature;BMP_pressure;BME280_temperature;BME280_humidity;BME280_pressure;Samples;Min_cycle;Max_cycle;Signal;HPM_P1;HPM_P2
2022/10/03 00:01:35;;;;;;;11.85;2.70;;;;;;;;;;5016490;28;20120;-71
2022/10/03 00:04:20;;;;;;;12.52;3.20;;;10.80;99.90;;;;;;5017767;28;20041;-70
2022/10/03 00:07:23;;;;;;;14.02;2.40;;;10.90;99.90;;;;;;5035798;28;20048;-71
2022/10/03 00:10:18;;;;;;;14.03;2.70;;;10.90;99.90;;;;;;5053597;28;20037;-72
2022/10/03 00:13:08;;;;;;;12.30;2.42;;;10.90;99.90;;;;;;5035861;28;20051;-72
2022/10/03 00:15:33;;;;;;;11.98;2.40;;;11.00;99.90;;;;;;5035812;28;20071;-72
2022/10/03 00:18:36;;;;;;;13.38;3.15;;;11.00;99.90;;;;;;5026722;28;20148;-72
2022/10/03 00:21:19;;;;;;;8.70;2.33;;;10.70;99.90;;;;;;5015839;28;20049;-72
2022/10/03 00:23:58;;;;;;;10.68;2.88;;;10.90;99.90;;;;;;5033827;28;20117;-72
2022/10/03 00:26:40;;;;;;;15.30;3.58;;;;;;;;;;5016022;28;20448;-72
2022/10/03 00:29:15;;;;;;;13.75;3.42;;;;;;;;;;5015970;28;20175;-72
2022/10/03 00:32:06;;;;;;;11.88;3.70;;;10.90;99.90;;;;;;5004824;28;20068;-72
2022/10/03 00:34:38;;;;;;;15.40;3.08;;;10.80;99.90;;;;;;5052934;28;20127;-72
2022/10/03 00:37:31;;;;;;;13.80;2.75;;;10.60;99.90;;;;;;5035496;28;20083;-72
2022/10/03 00:40:35;;;;;;;14.20;2.65;;;10.80;99.90;;;;;;5035328;28;20045;-72
2022/10/03 00:43:40;;;;;;;12.55;1.95;;;10.80;99.90;;;;;;5053203;28;20469;-72
2022/10/03 00:46:29;;;;;;;12.52;2.22;;;10.70;99.90;;;;;;5026394;28;20080;-71
2022/10/03 00:48:58;;;;;;;15.73;2.55;;;;;;;;;;5015403;28;20439;-72
2022/10/03 00:51:57;;;;;;;13.05;2.42;;;10.80;99.90;;;;;;5015618;28;20073;-71
2022/10/03 00:54:52;;;;;;;13.00;2.45;;;10.80;99.90;;;;;;5022974;28;20467;-72
2022/10/03 00:57:41;;;;;;;10.38;2.17;;;;;;;;;;5035355;28;20573;-72
2022/10/03 01:00:28;;;;;;;14.98;2.40;;;10.80;99.90;;;;;;5044415;28;20650;-72
2022/10/03 01:03:18;;;;;;;15.07;3.05;;;11.10;99.90;;;;;;5014979;28;20124;-72
2022/10/03 01:06:13;;;;;;;18.20;2.47;;;10.90;99.90;;;;;;5015131;28;20503;-72
2022/10/03 01:09:13;;;;;;;12.38;1.90;;;11.00;99.90;;;;;;5032576;28;20049;-72
2022/10/03 01:12:08;;;;;;;11.23;2.22;;;10.90;99.90;;;;;;5015270;28;20177;-72
2022/10/03 01:14:36;;;;;;;12.15;1.70;;;;;;;;;;5041326;28;20574;-72
2022/10/03 01:17:21;;;;;;;7.55;1.73;;;11.00;99.90;;;;;;5052244;28;20241;-72
2022/10/03 01:20:11;;;;;;;16.60;2.83;;;10.80;99.90;;;;;;5034784;28;20044;-72
2022/10/03 01:22:55;;;;;;;10.05;2.33;;;10.70;99.90;;;;;;5034536;28;20044;-72
2022/10/03 01:25:44;;;;;;;11.57;2.40;;;10.90;99.90;;;;;;5034416;28;20084;-72
2022/10/03 01:31:16;;;;;;;11.85;1.88;;;10.70;99.90;;;;;;5014584;28;20106;-72
2022/10/03 01:33:49;;;;;;;9.48;1.73;;;10.80;99.90;;;;;;5032379;28;20427;-72
2022/10/03 01:36:33;;;;;;;;;;;10.90;99.90;;;;;;5032594;28;20029;-72
2022/10/03 01:39:14;;;;;;;15.02;2.50;;;10.70;99.90;;;;;;5014284;28;19960;-72
2022/10/03 01:41:59;;;;;;;10.45;2.00;;;10.90;99.90;;;;;;5034452;28;20232;-71
2022/10/03 01:44:42;;;;;;;19.95;2.33;;;11.00;99.90;;;;;;5051727;28;20037;-71
2022/10/03 01:47:39;;;;;;;13.35;1.75;;;10.70;99.90;;;;;;5034314;28;20033;-72
2022/10/03 01:50:24;;;;;;;9.98;1.77;;;10.90;99.90;;;;;;5080038;22;20052;-71
2022/10/03 01:52:55;;;;;;;10.07;2.45;;;10.70;99.90;;;;;;5071848;28;20625;-73
2022/10/03 01:55:48;;;;;;;9.43;1.70;;;10.80;99.90;;;;;;5060564;28;20048;-73
2022/10/03 01:58:59;;;;;;;8.65;2.00;;;10.60;99.90;;;;;;5070632;28;20047;-73
2022/10/03 02:01:35;;;;;;;7.35;2.00;;;10.70;99.90;;;;;;5052001;28;20053;-73
2022/10/03 02:04:29;;;;;;;7.45;1.80;;;10.70;99.90;;;;;;5033638;28;20086;-73
2022/10/03 02:07:20;;;;;;;12.77;1.70;;;10.50;99.90;;;;;;5050673;28;20456;-73
2022/10/03 02:09:46;;;;;;;9.55;1.92;;;10.50;99.90;;;;;;5030504;28;20063;-74
2022/10/03 02:12:24;;;;;;;10.32;1.60;;;10.40;99.90;;;;;;5031967;28;20041;-73
2022/10/03 02:15:01;;;;;;;7.57;1.83;;;10.30;99.90;;;;;;5031524;28;20041;-73
2022/10/03 02:17:53;;;;;;;7.53;1.92;;;10.40;99.90;;;;;;5030484;28;20041;-73
2022/10/03 02:20:38;;;;;;;6.85;1.80;;;10.50;99.90;;;;;;5047255;28;20060;-73
2022/10/03 02:23:31;;;;;;;13.13;2.22;;;10.40;99.90;;;;;;5014167;28;20045;-73
2022/10/03 02:26:22;;;;;;;10.82;1.55;;;10.30;99.90;;;;;;5031424;28;20509;-73
2022/10/03 02:28:59;;;;;;;13.77;2.38;;;10.30;99.90;;;;;;5047224;28;20037;-73
2022/10/03 02:32:02;;;;;;;13.32;1.80;;;10.30;99.90;;;;;;5031666;28;20527;-74
2022/10/03 02:34:47;;;;;;;9.07;1.73;;;10.30;99.90;;;;;;5030000;28;20098;-73
2022/10/03 02:37:50;;;;;;;6.88;2.05;;;10.20;99.90;;;;;;5061038;28;20064;-73
2022/10/03 02:40:33;;;;;;;7.97;1.90;;;10.10;99.90;;;;;;5050352;28;20053;-73
2022/10/03 02:43:11;;;;;;;8.45;1.70;;;10.10;99.90;;;;;;5049955;28;20044;-73
2022/10/03 02:46:08;;;;;;;12.15;2.08;;;10.00;99.90;;;;;;5050012;28;20049;-73
2022/10/03 02:49:02;;;;;;;8.32;1.75;;;10.10;99.90;;;;;;5031847;28;20075;-73
2022/10/03 02:51:28;;;;;;;10.73;1.88;;;;;;;;;;5034093;28;20417;-73
2022/10/03 02:53:59;;;;;;;6.38;1.63;;;10.10;99.90;;;;;;5017252;28;20136;-74
2022/10/03 02:56:41;;;;;;;10.52;2.20;;;10.00;99.90;;;;;;5035234;28;20510;-73
2022/10/03 02:59:46;;;;;;;9.18;1.83;;;10.20;99.90;;;;;;5033889;28;20399;-73
2022/10/03 03:03:06;;;;;;;6.55;1.48;;;9.80;99.90;;;;;;5033870;28;20045;-73
2022/10/03 03:05:32;;;;;;;14.32;2.00;;;;;;;;;;4996031;28;20621;-73
2022/10/03 03:08:27;;;;;;;9.93;1.70;;;9.80;99.90;;;;;;5025288;28;20049;-73
2022/10/03 03:11:25;;;;;;;7.38;1.60;;;9.80;99.90;;;;;;5033985;28;20400;-73
2022/10/03 03:14:25;;;;;;;7.28;1.77;;;9.90;99.90;;;;;;5040305;28;20029;-74
2022/10/03 03:16:51;;;;;;;5.93;1.50;;;;;;;;;;5053589;28;20033;-73
2022/10/03 03:19:54;;;;;;;14.35;3.05;;;9.70;99.90;;;;;;5069605;28;20402;-73
2022/10/03 03:22:31;;;;;;;7.45;2.38;;;9.60;99.90;;;;;;5033354;28;20045;-73
2022/10/03 03:25:21;;;;;;;4.65;1.58;;;9.60;99.90;;;;;;5047667;28;20040;-73
2022/10/03 03:28:26;;;;;;;6.75;2.00;;;9.40;99.90;;;;;;5054785;28;20037;-73
2022/10/03 03:31:07;;;;;;;6.35;1.45;;;9.50;99.90;;;;;;5054481;28;20162;-73
2022/10/03 03:33:46;;;;;;;9.80;1.35;;;9.60;99.90;;;;;;5053276;28;20052;-73
2022/10/03 03:36:33;;;;;;;11.95;2.33;;;9.60;99.90;;;;;;5036361;28;20080;-73
2022/10/03 03:39:41;;;;;;;11.30;2.30;;;9.80;99.90;;;;;;5053217;28;20045;-73
2022/10/03 03:42:07;;;;;;;6.75;2.45;;;;;;;;;;5030477;28;20041;-73
2022/10/03 03:44:55;;;;;;;9.60;2.13;;;9.50;99.90;;;;;;5033996;28;20030;-73
2022/10/03 03:47:46;;;;;;;4.45;1.30;;;9.60;99.90;;;;;;5049827;28;20388;-73
2022/10/03 03:50:51;;;;;;;8.48;1.88;;;9.70;99.90;;;;;;5032663;28;20158;-73
2022/10/03 03:53:46;;;;;;;8.40;1.95;;;9.60;99.90;;;;;;5025680;28;20050;-73
2022/10/03 03:56:14;;;;;;;5.78;1.30;;;;;;;;;;5032878;28;20091;-74
2022/10/03 03:58:58;;;;;;;4.47;1.48;;;9.40;99.90;;;;;;5016298;28;20053;-73
2022/10/03 04:01:30;;;;;;;8.40;1.83;;;9.40;99.90;;;;;;5033690;28;20462;-73
2022/10/03 04:04:41;;;;;;;8.45;1.95;;;9.40;99.90;;;;;;5033686;28;20045;-73
2022/10/03 04:07:07;;;;;;;6.25;1.67;;;;;;;;;;5009549;28;20124;-73
2022/10/03 04:09:52;;;;;;;4.80;1.40;;;9.40;99.90;;;;;;5017212;28;20128;-73
2022/10/03 04:13:09;;;;;;;5.95;1.83;;;9.40;99.90;;;;;;5032886;28;20407;-73
2022/10/03 04:16:09;;;;;;;7.15;1.33;;;9.20;99.90;;;;;;4991120;28;20057;-73
2022/10/03 04:18:57;;;;;;;6.70;2.10;;;9.10;99.90;;;;;;5033664;28;20503;-73
2022/10/03 04:22:01;;;;;;;5.72;1.48;;;9.20;99.90;;;;;;5033814;28;20038;-73
2022/10/03 04:24:57;;;;;;;8.38;1.83;;;9.30;99.90;;;;;;5015533;28;20495;-73
2022/10/03 04:27:23;;;;;;;9.52;1.85;;;;;;;;;;5046393;28;20041;-73
2022/10/03 04:30:22;;;;;;;8.70;2.08;;;9.30;99.90;;;;;;5052096;28;20044;-73
2022/10/03 04:33:02;;;;;;;8.80;1.58;;;9.30;99.90;;;;;;5052302;28;20103;-73
2022/10/03 04:35:47;;;;;;;5.25;1.58;;;9.20;99.90;;;;;;5035264;28;20037;-73
2022/10/03 04:38:49;;;;;;;7.22;1.73;;;9.10;99.90;;;;;;5052324;28;20041;-73
2022/10/03 04:41:39;;;;;;;8.55;1.70;;;9.10;99.90;;;;;;5052015;28;20120;-73
2022/10/03 04:44:07;;;;;;;4.35;1.98;;;;;;;;;;5033197;28;20047;-73
2022/10/03 04:46:33;;;;;;;11.45;1.83;;;;;;;;;;5031956;28;20041;-73
2022/10/03 04:49:15;;;;;;;12.02;2.33;;;9.10;99.90;;;;;;5031636;28;20033;-73
2022/10/03 04:51:56;;;;;;;4.82;1.77;;;9.00;99.90;;;;;;5033285;28;20064;-73
2022/10/03 04:54:47;;;;;;;8.25;2.30;;;9.00;99.90;;;;;;5031987;28;20395;-73
2022/10/03 04:57:34;;;;;;;7.13;2.47;;;8.90;99.90;;;;;;5032197;28;20068;-73
2022/10/03 05:00:30;;;;;;;9.93;2.40;;;9.10;99.90;;;;;;5033059;28;20037;-73
2022/10/03 05:03:21;;;;;;;5.68;2.47;;;9.10;99.90;;;;;;5048799;28;20044;-73
2022/10/03 05:05:58;;;;;;;8.60;2.80;;;9.00;99.90;;;;;;5032639;28;20040;-73
2022/10/03 05:08:43;;;;;;;5.68;2.63;;;9.00;99.90;;;;;;5032847;28;20453;-74
2022/10/03 05:11:44;;;;;;;6.38;2.38;;;9.10;99.90;;;;;;5048448;28;20037;-73
2022/10/03 05:14:30;;;;;;;6.40;2.03;;;9.00;99.90;;;;;;5030863;28;20036;-73
2022/10/03 05:17:11;;;;;;;5.07;2.13;;;8.80;99.90;;;;;;5047595;28;20094;-73
2022/10/03 05:19:46;;;;;;;7.45;2.45;;;8.80;99.90;;;;;;5052528;28;20037;-73
2022/10/03 05:22:29;;;;;;;7.25;2.60;;;8.80;99.90;;;;;;5051172;28;20052;-73
2022/10/03 05:25:17;;;;;;;10.43;3.17;;;8.80;99.90;;;;;;5052243;28;20029;-73
2022/10/03 05:28:17;;;;;;;7.88;2.83;;;8.80;99.90;;;;;;5051156;28;20037;-73
2022/10/03 05:31:17;;;;;;;8.80;3.30;;;9.00;99.90;;;;;;5051159;28;20037;-73
2022/10/03 05:34:05;;;;;;;10.05;3.83;;;8.90;99.90;;;;;;5049028;28;20112;-73
2022/10/03 05:36:53;;;;;;;12.52;6.03;;;8.90;99.90;;;;;;5034403;28;20045;-73
2022/10/03 05:39:25;;;;;;;11.00;5.22;;;8.90;99.90;;;;;;5050921;28;20044;-73
2022/10/03 05:41:59;;;;;;;14.73;6.30;;;8.80;99.90;;;;;;5050281;28;20037;-73
2022/10/03 05:44:58;;;;;;;16.05;5.30;;;8.80;99.90;;;;;;5050339;28;20052;-73
2022/10/03 05:47:43;;;;;;;10.60;5.25;;;8.80;99.90;;;;;;5050117;28;20048;-73
2022/10/03 05:50:12;;;;;;;13.18;5.90;;;8.80;99.90;;;;;;5041612;28;20059;-73
2022/10/03 05:53:01;;;;;;;17.42;5.18;;;8.80;99.90;;;;;;5047754;28;20090;-73
2022/10/03 05:55:27;;;;;;;10.18;5.15;;;;;;;;;;5050320;28;20052;-73
2022/10/03 05:58:30;;;;;;;8.77;4.00;;;8.90;99.90;;;;;;5051917;28;20056;-73
2022/10/03 06:01:16;;;;;;;11.45;3.97;;;8.80;99.90;;;;;;5051260;28;20045;-72
2022/10/03 06:03:55;;;;;;;9.70;4.13;;;8.70;99.90;;;;;;5050672;28;20123;-73
2022/10/03 06:06:46;;;;;;;10.25;3.80;;;8.80;99.90;;;;;;5049928;28;20037;-73
2022/10/03 06:09:41;;;;;;;9.73;3.88;;;8.80;99.90;;;;;;5048330;28;20441;-73
2022/10/03 06:12:58;;;;;;;7.13;3.95;;;8.70;99.90;;;;;;5031847;28;20037;-73
2022/10/03 06:15:38;;;;;;;24.27;5.97;;;9.10;99.90;;;;;;5006870;28;20430;-73
2022/10/03 06:18:22;;;;;;;14.02;4.75;;;8.90;99.90;;;;;;5050447;28;20037;-74
2022/10/03 06:21:17;;;;;;;10.55;4.60;;;8.80;99.90;;;;;;5051608;28;20134;-73
2022/10/03 06:24:28;;;;;;;11.43;4.45;;;9.00;99.90;;;;;;5053032;28;20517;-73
2022/10/03 06:26:54;;;;;;;12.50;3.45;;;;;;;;;;5040074;28;20414;-73
2022/10/03 06:29:53;;;;;;;24.48;4.38;;;9.20;99.90;;;;;;5038196;28;20045;-73
2022/10/03 06:33:03;;;;;;;9.90;2.70;;;9.20;99.90;;;;;;5035305;28;20072;-73
2022/10/03 06:36:06;;;;;;;6.72;2.40;;;9.30;99.90;;;;;;5056571;28;20041;-74
2022/10/03 06:38:45;;;;;;;8.77;2.80;;;9.30;99.90;;;;;;5057432;28;20036;-74
2022/10/03 06:42:14;;;;;;;10.88;3.28;;;9.40;99.90;;;;;;5053519;28;20044;-74
2022/10/03 06:44:57;;;;;;;7.50;3.28;;;9.40;99.90;;;;;;4971275;28;20046;-74
2022/10/03 06:47:41;;;;;;;10.02;3.03;;;9.50;99.90;;;;;;5024250;28;20395;-75
2022/10/03 06:50:18;;;;;;;;;;;9.40;99.90;;;;;;5048621;28;20521;-74
2022/10/03 06:52:58;;;;;;;11.40;3.22;;;9.40;99.90;;;;;;5067005;28;19917;-75
2022/10/03 06:55:48;;;;;;;6.45;2.70;;;9.70;99.90;;;;;;5052267;28;20044;-76
2022/10/03 06:58:47;;;;;;;13.32;3.28;;;9.80;99.90;;;;;;5051679;28;20102;-79
2022/10/03 07:01:38;;;;;;;13.88;3.85;;;10.00;99.90;;;;;;5046494;28;20116;-74
2022/10/03 07:04:26;;;;;;;9.20;2.40;;;10.10;99.90;;;;;;5040583;28;20206;-74
2022/10/03 07:06:52;;;;;;;7.95;2.40;;;;;;;;;;5047614;28;20033;-74
2022/10/03 07:09:42;;;;;;;12.27;3.40;;;10.40;99.90;;;;;;5031504;28;20047;-74
2022/10/03 07:12:14;;;;;;;10.45;2.42;;;10.50;99.90;;;;;;5035937;28;20530;-74
2022/10/03 07:15:04;;;;;;;7.28;2.47;;;10.70;99.90;;;;;;5048324;28;20507;-74
2022/10/03 07:17:44;;;;;;;11.98;3.35;;;10.80;99.90;;;;;;5053518;28;20036;-75
2022/10/03 07:20:46;;;;;;;14.25;3.35;;;10.80;99.90;;;;;;5055583;28;20045;-74
2022/10/03 07:23:47;;;;;;;15.77;3.90;;;11.20;99.90;;;;;;5053410;28;20045;-74
2022/10/03 07:27:01;;;;;;;7.95;2.80;;;11.00;99.90;;;;;;5050529;28;20045;-74
2022/10/03 07:29:34;;;;;;;11.60;2.90;;;11.40;99.90;;;;;;5044248;28;20529;-74
2022/10/03 07:32:21;;;;;;;20.97;4.47;;;11.40;99.90;;;;;;5055680;28;20045;-75
2022/10/03 07:35:24;;;;;;;8.30;2.42;;;11.50;99.90;;;;;;5053262;28;20044;-75
2022/10/03 07:41:20;;;;;;;10.02;2.55;;;11.70;99.90;;;;;;5053975;28;20059;-73
2022/10/03 07:44:30;;;;;;;18.75;2.70;;;11.80;99.90;;;;;;5054226;28;20045;-74
2022/10/03 07:47:08;;;;;;;15.98;3.10;;;11.90;99.90;;;;;;5051557;28;20037;-73
2022/10/03 07:49:46;;;;;;;18.23;3.08;;;12.20;99.90;;;;;;5047972;28;20418;-74
2022/10/03 07:52:14;;;;;;;9.88;3.03;;;;;;;;;;5040416;28;20426;-74
2022/10/03 07:55:08;;;;;;;9.85;2.38;;;12.20;99.90;;;;;;5050351;28;20097;-74
2022/10/03 07:58:11;;;;;;;16.48;2.80;;;12.40;99.90;;;;;;5045906;28;20438;-74
2022/10/03 08:00:59;;;;;;;10.20;2.20;;;12.40;99.90;;;;;;5043490;28;20037;-73
2022/10/03 08:03:40;;;;;;;9.95;3.85;;;12.70;99.90;;;;;;5048782;28;20038;-73
2022/10/03 08:06:16;;;;;;;9.35;2.35;;;12.30;99.90;;;;;;5049938;28;20048;-73
2022/10/03 08:09:05;;;;;;;13.55;2.05;;;13.00;99.90;;;;;;5051295;28;20037;-73
2022/10/03 08:11:55;;;;;;;14.35;2.38;;;13.00;99.90;;;;;;5031795;28;20037;-73
2022/10/03 08:14:39;;;;;;;10.13;2.00;;;12.90;99.90;;;;;;5049977;28;20049;-73
2022/10/03 08:17:11;;;;;;;13.95;2.45;;;13.00;99.90;;;;;;5051936;28;20049;-74
2022/10/03 08:20:13;;;;;;;12.20;1.80;;;13.10;99.90;;;;;;5051069;28;20044;-73
2022/10/03 08:23:03;;;;;;;6.63;1.50;;;13.40;99.90;;;;;;5031015;28;20053;-73
2022/10/03 08:25:57;;;;;;;9.75;2.90;;;13.50;99.90;;;;;;5051410;28;20112;-73
2022/10/03 08:28:42;;;;;;;7.40;1.98;;;13.40;99.90;;;;;;5042600;28;20124;-72
2022/10/03 08:31:45;;;;;;;11.63;2.90;;;13.50;99.90;;;;;;5049564;28;20033;-72
2022/10/03 08:34:39;;;;;;;6.97;1.70;;;13.50;99.90;;;;;;5050962;28;20115;-73
2022/10/03 08:37:49;;;;;;;8.48;1.90;;;13.60;99.90;;;;;;5048166;28;20135;-73
2022/10/03 08:40:41;;;;;;;10.52;1.90;;;13.90;99.90;;;;;;5051295;28;20048;-73
2022/10/03 08:43:37;;;;;;;12.23;1.98;;;13.80;99.90;;;;;;5050452;28;20056;-73
2022/10/03 08:46:32;;;;;;;7.60;2.30;;;13.70;99.90;;;;;;5047266;28;20376;-73
2022/10/03 08:49:35;;;;;;;9.63;1.77;;;13.90;99.90;;;;;;5037039;28;20034;-73
2022/10/03 08:52:28;;;;;;;6.07;1.57;;;14.30;99.90;;;;;;5044902;28;20093;-73
2022/10/03 08:55:24;;;;;;;10.45;1.65;;;14.30;99.90;;;;;;5047567;28;20041;-73
2022/10/03 08:58:17;;;;;;;17.88;2.95;;;14.40;99.90;;;;;;5051397;28;20068;-73
2022/10/03 09:01:17;;;;;;;6.90;1.47;;;14.30;99.90;;;;;;5049036;28;20037;-73
2022/10/03 09:03:58;;;;;;;11.77;1.60;;;14.50;99.90;;;;;;5048510;28;20075;-73
2022/10/03 09:07:09;;;;;;;6.80;1.40;;;14.70;99.90;;;;;;5049412;28;20045;-73
2022/10/03 09:09:44;;;;;;;9.32;1.50;;;14.80;99.90;;;;;;5048972;28;20041;-73
2022/10/03 09:12:41;;;;;;;13.18;3.45;;;14.70;99.90;;;;;;5037074;28;20499;-73
2022/10/03 09:15:56;;;;;;;8.48;1.40;;;14.90;99.90;;;;;;5045888;28;20053;-73
2022/10/03 09:18:22;;;;;;;8.02;1.38;;;;;;;;;;4977336;28;20137;-74
2022/10/03 09:21:25;;;;;;;12.00;1.98;;;14.90;99.90;;;;;;5050591;28;20079;-74
2022/10/03 09:24:09;;;;;;;6.78;1.50;;;15.10;99.90;;;;;;5047673;28;20048;-74
2022/10/03 09:26:59;;;;;;;8.77;1.23;;;15.10;99.90;;;;;;5045709;28;20125;-74
2022/10/03 09:30:02;;;;;;;7.30;1.23;;;15.20;99.90;;;;;;5049414;28;20033;-74
2022/10/03 09:32:53;;;;;;;7.10;1.48;;;15.30;99.90;;;;;;5032916;28;20402;-74
2022/10/03 09:35:37;;;;;;;8.95;1.40;;;15.50;99.90;;;;;;5050626;28;20045;-74
2022/10/03 09:38:43;;;;;;;9.40;1.27;;;15.40;99.90;;;;;;5050921;28;20037;-74
2022/10/03 09:41:20;;;;;;;6.38;1.30;;;15.60;99.90;;;;;;5050865;28;20033;-74
2022/10/03 09:44:16;;;;;;;9.48;1.55;;;15.50;99.90;;;;;;5048711;28;20045;-74
2022/10/03 09:49:51;;;;;;;6.60;1.50;;;15.60;99.90;;;;;;5047013;28;20503;-73
2022/10/03 09:53:01;;;;;;;10.10;1.65;;;15.70;99.90;;;;;;5042573;28;20285;-74
2022/10/03 09:55:54;;;;;;;5.28;1.40;;;15.80;99.90;;;;;;5050276;28;20037;-73
2022/10/03 09:58:53;;;;;;;6.05;1.00;;;15.70;99.90;;;;;;5047484;28;20036;-72
2022/10/03 10:01:50;;;;;;;8.20;1.98;;;15.90;99.90;;;;;;5050072;28;20151;-71
2022/10/03 10:04:40;;;;;;;7.28;1.35;;;15.70;99.90;;;;;;5051201;28;20119;-72
2022/10/03 10:07:36;;;;;;;6.53;2.28;;;15.90;99.90;;;;;;5038453;28;20038;-72
2022/10/03 10:10:16;;;;;;;6.43;1.30;;;15.90;99.90;;;;;;5047783;28;20503;-71
2022/10/03 10:13:11;;;;;;;3.65;1.20;;;16.00;99.90;;;;;;5035427;28;20045;-72
2022/10/03 10:16:08;;;;;;;7.00;1.00;;;15.90;99.90;;;;;;5049674;28;20040;-73
2022/10/03 10:18:46;;;;;;;6.65;1.45;;;16.10;99.90;;;;;;5067206;28;20049;-74
2022/10/03 10:21:51;;;;;;;7.18;1.10;;;16.20;99.90;;;;;;5031151;28;20044;-74
2022/10/03 10:24:50;;;;;;;4.88;1.35;;;16.30;99.90;;;;;;4996625;28;20187;-73
2022/10/03 10:27:41;;;;;;;10.57;1.23;;;16.30;99.90;;;;;;5057200;28;20036;-74
2022/10/03 10:30:47;;;;;;;7.72;1.98;;;16.30;99.90;;;;;;5046399;28;20033;-74
2022/10/03 10:33:35;;;;;;;6.78;1.00;;;16.40;99.90;;;;;;5061722;28;20052;-71
2022/10/03 10:36:38;;;;;;;3.80;1.10;;;16.60;99.90;;;;;;5045867;28;20032;-72
2022/10/03 10:39:29;;;;;;;4.93;1.05;;;16.60;99.90;;;;;;5066172;28;20491;-73
2022/10/03 10:42:38;;;;;;;5.10;1.15;;;16.50;99.90;;;;;;5063989;28;20176;-73
2022/10/03 10:45:23;;;;;;;6.25;1.52;;;16.50;99.90;;;;;;5048685;28;20070;-73
2022/10/03 10:48:33;;;;;;;11.10;1.50;;;16.50;99.90;;;;;;5045058;28;20120;-74
2022/10/03 10:51:26;;;;;;;6.05;1.23;;;16.50;99.90;;;;;;5048726;28;20120;-73
2022/10/03 10:54:28;;;;;;;6.03;1.45;;;16.60;99.90;;;;;;5033135;28;20037;-73
2022/10/03 10:57:09;;;;;;;7.93;1.58;;;16.30;99.90;;;;;;5028230;28;20119;-73
2022/10/03 11:00:10;;;;;;;8.02;1.40;;;16.50;99.90;;;;;;5047950;28;20045;-73
2022/10/03 11:02:36;;;;;;;10.68;1.65;;;;;;;;;;5048866;28;20037;-74
2022/10/03 11:05:37;;;;;;;11.27;1.83;;;16.80;99.90;;;;;;5035808;28;20044;-75
2022/10/03 11:08:40;;;;;;;6.90;2.13;;;16.80;99.90;;;;;;5039689;28;20146;-75
2022/10/03 11:11:25;;;;;;;;;;;16.70;99.90;;;;;;5045025;28;20518;-75
2022/10/03 11:14:07;;;;;;;6.57;1.60;;;16.90;99.90;;;;;;5043346;28;20012;-75
2022/10/03 11:16:36;;;;;;;9.43;2.10;;;16.90;99.90;;;;;;5051083;28;20037;-72
2022/10/03 11:19:36;;;;;;;5.45;1.67;;;16.90;99.90;;;;;;5050261;28;20542;-75
2022/10/03 11:22:20;;;;;;;9.80;1.70;;;17.00;99.90;;;;;;5047613;28;20063;-75
2022/10/03 11:25:32;;;;;;;6.78;1.80;;;17.20;99.90;;;;;;5046350;28;20087;-76
2022/10/03 11:28:19;;;;;;;7.70;1.85;;;17.10;99.90;;;;;;5022652;28;20044;-75
2022/10/03 11:31:06;;;;;;;8.40;2.00;;;16.70;99.90;;;;;;5029462;28;20039;-75
2022/10/03 11:34:11;;;;;;;7.88;1.65;;;17.20;99.90;;;;;;5047920;28;20048;-75
2022/10/03 11:36:37;;;;;;;6.25;1.20;;;;;;;;;;5049227;28;20049;-75
2022/10/03 11:39:15;;;;;;;13.02;1.52;;;16.90;99.90;;;;;;5065872;28;20037;-75
2022/10/03 11:42:19;;;;;;;6.20;1.45;;;16.90;99.90;;;;;;5051419;28;20127;-75
2022/10/03 11:45:10;;;;;;;8.07;1.40;;;17.00;99.90;;;;;;5032229;28;20133;-75
2022/10/03 11:48:02;;;;;;;9.73;2.40;;;16.90;99.90;;;;;;5032499;28;20080;-75
2022/10/03 11:50:33;;;;;;;5.65;1.50;;;16.90;99.90;;;;;;5049786;28;20037;-75
2022/10/03 11:53:11;;;;;;;3.80;1.00;;;16.80;99.90;;;;;;5048226;28;20041;-75
2022/10/03 11:56:12;;;;;;;5.55;1.10;;;16.80;99.90;;;;;;5043266;28;20045;-75
2022/10/03 11:58:56;;;;;;;6.85;1.00;;;16.90;99.90;;;;;;5051227;28;20048;-75
2022/10/03 12:01:55;;;;;;;6.10;1.27;;;16.90;99.90;;;;;;5050001;28;20036;-75
2022/10/03 12:04:45;;;;;;;7.82;1.23;;;16.90;99.90;;;;;;5048316;28;20102;-75
2022/10/03 12:10:39;;;;;;;6.07;1.42;;;17.20;99.90;;;;;;5050282;28;20106;-75
2022/10/03 12:13:15;;;;;;;4.93;1.10;;;17.20;99.90;;;;;;5051966;28;20052;-75
2022/10/03 12:15:51;;;;;;;3.72;0.85;;;17.30;99.90;;;;;;5033590;28;20387;-75
2022/10/03 12:18:28;;;;;;;4.80;1.00;;;17.10;99.90;;;;;;5054175;28;20463;-75
2022/10/03 12:21:06;;;;;;;8.35;2.13;;;17.10;99.90;;;;;;5050044;28;20094;-74
2022/10/03 12:23:55;;;;;;;5.10;1.65;;;17.10;99.90;;;;;;5046493;28;20037;-73
2022/10/03 12:26:36;;;;;;;5.93;1.30;;;17.10;99.90;;;;;;5050131;28;20574;-74
2022/10/03 12:29:04;;;;;;;5.65;1.20;;;17.10;99.90;;;;;;5049321;28;20075;-73
2022/10/03 12:32:00;;;;;;;6.47;1.40;;;17.00;99.90;;;;;;5050260;28;20033;-74
2022/10/03 12:34:52;;;;;;;5.72;1.35;;;17.10;99.90;;;;;;5047800;28;20037;-73
2022/10/03 12:37:34;;;;;;;4.82;0.95;;;17.30;99.90;;;;;;5045250;28;20121;-73
2022/10/03 12:40:18;;;;;;;13.05;1.95;;;17.40;99.90;;;;;;5048792;28;20126;-74
2022/10/03 12:42:58;;;;;;;5.97;1.90;;;17.20;99.90;;;;;;5051563;28;20042;-73
2022/10/03 12:45:42;;;;;;;7.45;1.27;;;17.20;99.90;;;;;;5050877;28;20090;-73
2022/10/03 12:48:46;;;;;;;6.40;1.15;;;17.40;99.90;;;;;;5032125;28;20069;-74
2022/10/03 12:51:40;;;;;;;8.20;1.30;;;17.50;99.90;;;;;;5048058;28;20402;-73
2022/10/03 12:54:44;;;;;;;7.40;1.55;;;17.50;99.90;;;;;;5036056;28;20033;-73
2022/10/03 12:57:32;;;;;;;3.75;0.90;;;17.30;99.90;;;;;;5050119;28;20040;-73
2022/10/03 13:00:13;;;;;;;7.22;1.50;;;17.40;99.90;;;;;;5034538;28;20102;-74
2022/10/03 13:02:46;;;;;;;4.80;1.00;;;17.20;99.90;;;;;;5052245;28;20049;-74
2022/10/03 13:05:14;;;;;;;;;;;17.20;99.90;;;;;;5034994;28;20043;-74
2022/10/03 13:07:51;;;;;;;5.88;1.20;;;17.20;99.90;;;;;;5052237;28;19920;-73
2022/10/03 13:10:48;;;;;;;7.63;1.00;;;17.40;99.90;;;;;;5049276;28;20040;-73
2022/10/03 13:13:51;;;;;;;5.97;1.42;;;17.40;99.90;;;;;;5048166;28;20079;-73
2022/10/03 13:16:17;;;;;;;6.93;1.25;;;;;;;;;;5048775;28;20041;-73
2022/10/03 13:18:51;;;;;;;6.32;0.93;;;17.40;99.90;;;;;;5048409;28;20116;-73
2022/10/03 13:21:31;;;;;;;4.80;1.00;;;17.60;99.90;;;;;;5050272;28;20461;-73
2022/10/03 13:24:38;;;;;;;4.78;1.02;;;17.50;99.90;;;;;;5047201;28;20375;-70
2022/10/03 13:27:22;;;;;;;7.07;1.20;;;17.60;99.90;;;;;;4990525;28;20100;-73
2022/10/03 13:30:16;;;;;;;7.10;1.35;;;17.80;99.90;;;;;;5043321;28;20055;-73
2022/10/03 13:33:05;;;;;;;4.25;0.80;;;17.70;99.90;;;;;;5040177;28;20037;-76
2022/10/03 13:38:35;;;;;;;4.07;0.90;;;17.70;99.90;;;;;;5050514;28;20067;-74
2022/10/03 13:41:24;;;;;;;4.70;1.67;;;18.60;99.90;;;;;;5052073;28;20056;-73
2022/10/03 13:44:03;;;;;;;8.45;1.00;;;17.80;99.90;;;;;;5050570;28;20051;-74
2022/10/03 13:46:53;;;;;;;7.50;1.13;;;17.90;99.90;;;;;;5050935;28;20072;-73
2022/10/03 13:49:34;;;;;;;3.85;1.05;;;17.90;99.90;;;;;;5057707;22;20530;-72
2022/10/03 13:52:10;;;;;;;7.07;1.20;;;17.90;99.90;;;;;;5037676;28;20049;-74
2022/10/03 13:54:44;;;;;;;4.45;0.80;;;17.80;99.90;;;;;;5013859;28;20057;-74
2022/10/03 13:57:19;;;;;;;3.30;1.00;;;17.80;99.90;;;;;;5014197;28;20081;-74
2022/10/03 13:59:50;;;;;;;7.78;1.10;;;17.80;99.90;;;;;;5030432;28;20052;-74
2022/10/03 14:02:43;;;;;;;7.05;1.48;;;17.90;99.90;;;;;;5030523;28;20047;-74
2022/10/03 14:05:32;;;;;;;5.70;1.15;;;17.70;99.90;;;;;;5031791;28;20037;-74
2022/10/03 14:08:20;;;;;;;8.07;1.35;;;17.70;99.90;;;;;;5030538;28;20045;-74
2022/10/03 14:11:05;;;;;;;6.43;1.08;;;17.80;99.90;;;;;;5013826;28;20041;-74
2022/10/03 14:13:42;;;;;;;5.75;0.93;;;17.50;99.90;;;;;;5030321;28;20045;-74
2022/10/03 14:16:31;;;;;;;4.32;0.85;;;17.60;99.90;;;;;;5030343;28;20053;-74
2022/10/03 14:19:18;;;;;;;11.02;1.40;;;17.30;99.90;;;;;;5030776;28;20037;-74
2022/10/03 14:22:10;;;;;;;5.00;1.15;;;17.40;99.90;;;;;;5031426;28;20053;-74
2022/10/03 14:24:38;;;;;;;2.95;1.20;;;17.30;99.90;;;;;;5026998;28;20110;-73
2022/10/03 14:27:23;;;;;;;5.63;1.00;;;17.40;99.90;;;;;;5049798;28;20033;-74
2022/10/03 14:30:15;;;;;;;3.40;1.35;;;17.40;99.90;;;;;;5049688;28;20040;-74
2022/10/03 14:32:59;;;;;;;3.78;1.10;;;17.50;99.90;;;;;;5044688;28;20059;-74
2022/10/03 14:35:42;;;;;;;4.35;1.00;;;17.20;99.90;;;;;;5050513;28;20515;-74
2022/10/03 14:38:21;;;;;;;8.35;1.52;;;17.20;99.90;;;;;;5044893;28;20033;-74
2022/10/03 14:40:49;;;;;;;7.85;1.30;;;17.10;99.90;;;;;;5030188;28;20589;-74
2022/10/03 14:43:43;;;;;;;6.22;1.17;;;17.10;99.90;;;;;;5030287;28;20098;-73
2022/10/03 14:46:09;;;;;;;8.20;2.30;;;;;;;;;;5033942;28;20124;-72
2022/10/03 14:48:48;;;;;;;3.80;1.05;;;17.10;99.90;;;;;;5054927;28;20036;-73
2022/10/03 14:51:18;;;;;;;3.08;1.10;;;17.30;99.90;;;;;;5050467;28;20491;-72
2022/10/03 14:54:01;;;;;;;7.57;1.40;;;17.10;99.90;;;;;;5057084;28;20036;-73
2022/10/03 14:56:27;;;;;;;;;;;17.30;99.90;;;;;;5048347;28;20129;-73
2022/10/03 14:58:55;;;;;;;4.80;1.23;;;17.20;99.90;;;;;;5032812;28;20177;-73